PWSweather.com
Personal Weather Stations
Station Observations
WODONGA
Wodonga, WodongaAU 3690

WodongaWodongaAU 3690

Lat: -36.121, Lon: 146.87

Elevation: 541

Station Type: Weather Station

http://www.wodongaweather.net

Latest ConditionsUpdated 2:20:02 PM GMT+10:10 Monday, Jan 23, 2017
Currently Today's Max Today's Min Today's Average
Temperature 103.1°F39.5°C 104.0°F40.0°C 67.1°F19.5°C 79.5°F26.4°C
Dew Point 61.7°F16.5°C 73.6°F23.1°C 57.8°F14.3°C 62.7°F17.1°C
Winds 11.5 mph NW18.5 kmh NW 12.4 mph NW20.0 kmh NW - 3.8 mph 6.1 kmh
Wind Gusts 15.2 mph24.5 kmh 19.0 mph30.6 kmh - -
Humidity 26% 73% 25% 59%
Pressure 29.64 in1003.7 mb 29.82 in1009.8 mb 29.64 in1003.7 mb -
Hour Temp Dew Point Humidity Winds Wind Gusts Pressure Precip Precip Rate Daily Precip Total
02:20 PM 103.1°F39.5°C 61.7°F16.5°C 26% 11.5 mph NW18.5 kmh NW 15.2 mph24.5 kmh 29.64 in1003.7 mb 0.00 in0.0 mm 0.00 in0.0 mm 0.00 in0.0 mm
02:15 PM 103.6°F39.8°C 61.0°F16.1°C 25% 10.9 mph WNW17.5 kmh WNW 13.6 mph21.9 kmh 29.64 in1003.7 mb 0.00 in0.0 mm 0.00 in0.0 mm 0.00 in0.0 mm
02:10 PM 103.6°F39.8°C 61.0°F16.1°C 25% 11.3 mph WNW18.2 kmh WNW 13.6 mph21.9 kmh 29.64 in1003.7 mb 0.00 in0.0 mm 0.00 in0.0 mm 0.00 in0.0 mm
02:05 PM 104.0°F40.0°C 62.4°F16.9°C 26% 10.8 mph NW17.4 kmh NW 14.5 mph23.3 kmh 29.65 in1004.1 mb 0.00 in0.0 mm 0.00 in0.0 mm 0.00 in0.0 mm
02:00 PM 103.6°F39.8°C 61.0°F16.1°C 25% 10.7 mph NW17.2 kmh NW 14.5 mph23.3 kmh 29.65 in1004.1 mb 0.00 in0.0 mm 0.00 in0.0 mm 0.00 in0.0 mm
01:55 PM 102.0°F38.9°C 61.8°F16.6°C 27% 11.7 mph NW18.8 kmh NW 15.9 mph25.6 kmh 29.65 in1004.1 mb 0.00 in0.0 mm 0.00 in0.0 mm 0.00 in0.0 mm
01:50 PM 101.3°F38.5°C 59.0°F15.0°C 25% 10.4 mph NW16.7 kmh NW 15.9 mph25.6 kmh 29.66 in1004.4 mb 0.00 in0.0 mm 0.00 in0.0 mm 0.00 in0.0 mm
01:45 PM 102.9°F39.4°C 62.6°F17.0°C 27% 9.7 mph NW15.6 kmh NW 13.0 mph20.9 kmh 29.66 in1004.4 mb 0.00 in0.0 mm 0.00 in0.0 mm 0.00 in0.0 mm
01:40 PM 102.7°F39.3°C 61.4°F16.3°C 26% 12.4 mph NW20.0 kmh NW 19.0 mph30.6 kmh 29.66 in1004.4 mb 0.00 in0.0 mm 0.00 in0.0 mm 0.00 in0.0 mm
01:35 PM 103.1°F39.5°C 60.6°F15.9°C 25% 11.9 mph NW19.2 kmh NW 19.0 mph30.6 kmh 29.66 in1004.4 mb 0.00 in0.0 mm 0.00 in0.0 mm 0.00 in0.0 mm
01:30 PM 103.3°F39.6°C 61.8°F16.6°C 26% 9.3 mph NW15.0 kmh NW 19.0 mph30.6 kmh 29.66 in1004.4 mb 0.00 in0.0 mm 0.00 in0.0 mm 0.00 in0.0 mm
01:25 PM 102.9°F39.4°C 65.6°F18.7°C 30% 7.9 mph WNW12.7 kmh WNW 9.8 mph15.8 kmh 29.66 in1004.4 mb 0.00 in0.0 mm 0.00 in0.0 mm 0.00 in0.0 mm
01:20 PM 102.6°F39.2°C 66.2°F19.0°C 31% 6.3 mph NW10.1 kmh NW 9.2 mph14.8 kmh 29.67 in1004.7 mb 0.00 in0.0 mm 0.00 in0.0 mm 0.00 in0.0 mm
01:15 PM 101.8°F38.8°C 69.1°F20.6°C 35% 6.3 mph NW10.1 kmh NW 9.2 mph14.8 kmh 29.67 in1004.7 mb 0.00 in0.0 mm 0.00 in0.0 mm 0.00 in0.0 mm
01:10 PM 101.5°F38.6°C 68.0°F20.0°C 34% 6.8 mph NW10.9 kmh NW 9.8 mph15.8 kmh 29.68 in1005.1 mb 0.00 in0.0 mm 0.00 in0.0 mm 0.00 in0.0 mm
01:05 PM 101.7°F38.7°C 69.0°F20.6°C 35% 4.7 mph NW7.6 kmh NW 9.8 mph15.8 kmh 29.68 in1005.1 mb 0.00 in0.0 mm 0.00 in0.0 mm 0.00 in0.0 mm
01:00 PM 101.8°F38.8°C 71.6°F22.0°C 38% 3.7 mph E6.0 kmh E 5.4 mph8.7 kmh 29.68 in1005.1 mb 0.00 in0.0 mm 0.00 in0.0 mm 0.00 in0.0 mm
12:55 PM 102.0°F38.9°C 73.2°F22.9°C 40% 3.6 mph SE5.8 kmh SE 5.4 mph8.7 kmh 29.68 in1005.1 mb 0.00 in0.0 mm 0.00 in0.0 mm 0.00 in0.0 mm
12:50 PM 100.8°F38.2°C 73.6°F23.1°C 42% 2.5 mph SW4.0 kmh SW 4.5 mph7.2 kmh 29.68 in1005.1 mb 0.00 in0.0 mm 0.00 in0.0 mm 0.00 in0.0 mm
12:45 PM 98.6°F37.0°C 72.3°F22.4°C 43% 2.9 mph NNE4.7 kmh NNE 5.4 mph8.7 kmh 29.69 in1005.4 mb 0.00 in0.0 mm 0.00 in0.0 mm 0.00 in0.0 mm
12:40 PM 97.3°F36.3°C 70.5°F21.4°C 42% 3.5 mph ENE5.6 kmh ENE 6.0 mph9.7 kmh 29.69 in1005.4 mb 0.00 in0.0 mm 0.00 in0.0 mm 0.00 in0.0 mm
12:35 PM 98.2°F36.8°C 71.3°F21.8°C 42% 2.9 mph E4.7 kmh E 6.0 mph9.7 kmh 29.70 in1005.8 mb 0.00 in0.0 mm 0.00 in0.0 mm 0.00 in0.0 mm
12:30 PM 97.9°F36.6°C 71.0°F21.7°C 42% 4.2 mph E6.8 kmh E 6.9 mph11.1 kmh 29.70 in1005.8 mb 0.00 in0.0 mm 0.00 in0.0 mm 0.00 in0.0 mm
12:25 PM 98.2°F36.8°C 71.3°F21.8°C 42% 4.3 mph SE6.9 kmh SE 6.9 mph11.1 kmh 29.70 in1005.8 mb 0.00 in0.0 mm 0.00 in0.0 mm 0.00 in0.0 mm
12:20 PM 98.8°F37.1°C 72.5°F22.5°C 43% 4.0 mph SE6.4 kmh SE 7.6 mph12.2 kmh 29.71 in1006.1 mb 0.00 in0.0 mm 0.00 in0.0 mm 0.00 in0.0 mm
12:15 PM 98.8°F37.1°C 72.5°F22.5°C 43% 3.9 mph SE6.3 kmh SE 7.6 mph12.2 kmh 29.71 in1006.1 mb 0.00 in0.0 mm 0.00 in0.0 mm 0.00 in0.0 mm
12:10 PM 98.2°F36.8°C 72.0°F22.2°C 43% 3.5 mph ESE5.6 kmh ESE 4.5 mph7.2 kmh 29.71 in1006.1 mb 0.00 in0.0 mm 0.00 in0.0 mm 0.00 in0.0 mm
12:05 PM 97.9°F36.6°C 72.3°F22.4°C 44% 4.2 mph E6.8 kmh E 6.9 mph11.1 kmh 29.71 in1006.1 mb 0.00 in0.0 mm 0.00 in0.0 mm 0.00 in0.0 mm
12:00 PM 96.4°F35.8°C 71.7°F22.1°C 45% 4.0 mph ENE6.4 kmh ENE 6.9 mph11.1 kmh 29.72 in1006.4 mb 0.00 in0.0 mm 0.00 in0.0 mm 0.00 in0.0 mm
11:55 AM 96.6°F35.9°C 71.2°F21.8°C 44% 3.4 mph NNE5.5 kmh NNE 5.4 mph8.7 kmh 29.72 in1006.4 mb 0.00 in0.0 mm 0.00 in0.0 mm 0.00 in0.0 mm
11:50 AM 97.0°F36.1°C 71.5°F21.9°C 44% 3.6 mph NE5.8 kmh NE 5.4 mph8.7 kmh 29.72 in1006.4 mb 0.00 in0.0 mm 0.00 in0.0 mm 0.00 in0.0 mm
11:45 AM 97.2°F36.2°C 71.7°F22.1°C 44% 3.7 mph ESE6.0 kmh ESE 5.4 mph8.7 kmh 29.73 in1006.8 mb 0.00 in0.0 mm 0.00 in0.0 mm 0.00 in0.0 mm
11:40 AM 97.5°F36.4°C 72.0°F22.2°C 44% 4.7 mph E7.6 kmh E 7.6 mph12.2 kmh 29.73 in1006.8 mb 0.00 in0.0 mm 0.00 in0.0 mm 0.00 in0.0 mm
11:35 AM 96.6°F35.9°C 71.9°F22.2°C 45% 5.2 mph E8.4 kmh E 7.6 mph12.2 kmh 29.73 in1006.8 mb 0.00 in0.0 mm 0.00 in0.0 mm 0.00 in0.0 mm
11:30 AM 95.2°F35.1°C 70.6°F21.4°C 45% 4.5 mph E7.2 kmh E 7.6 mph12.2 kmh 29.74 in1007.1 mb 0.00 in0.0 mm 0.00 in0.0 mm 0.00 in0.0 mm
11:25 AM 95.2°F35.1°C 71.2°F21.8°C 46% 5.2 mph NNE8.4 kmh NNE 9.2 mph14.8 kmh 29.75 in1007.5 mb 0.00 in0.0 mm 0.00 in0.0 mm 0.00 in0.0 mm
11:20 AM 95.2°F35.1°C 69.9°F21.1°C 44% 5.7 mph NE9.2 kmh NE 9.2 mph14.8 kmh 29.74 in1007.1 mb 0.00 in0.0 mm 0.00 in0.0 mm 0.00 in0.0 mm
11:15 AM 96.3°F35.7°C 71.5°F21.9°C 45% 5.6 mph E9.0 kmh E 9.2 mph14.8 kmh 29.75 in1007.5 mb 0.00 in0.0 mm 0.00 in0.0 mm 0.00 in0.0 mm
11:10 AM 96.4°F35.8°C 71.7°F22.1°C 45% 5.3 mph ESE8.5 kmh ESE 7.6 mph12.2 kmh 29.75 in1007.5 mb 0.00 in0.0 mm 0.00 in0.0 mm 0.00 in0.0 mm
11:05 AM 95.7°F35.4°C 71.1°F21.7°C 45% 5.4 mph SE8.7 kmh SE 8.3 mph13.4 kmh 29.74 in1007.1 mb 0.00 in0.0 mm 0.00 in0.0 mm 0.00 in0.0 mm
11:00 AM 95.7°F35.4°C 71.7°F22.1°C 46% 5.2 mph SE8.4 kmh SE 8.3 mph13.4 kmh 29.75 in1007.5 mb 0.00 in0.0 mm 0.00 in0.0 mm 0.00 in0.0 mm
10:55 AM 95.2°F35.1°C 71.9°F22.2°C 47% 5.1 mph SE8.2 kmh SE 7.6 mph12.2 kmh 29.75 in1007.5 mb 0.00 in0.0 mm 0.00 in0.0 mm 0.00 in0.0 mm
10:50 AM 94.6°F34.8°C 71.4°F21.9°C 47% 5.4 mph SSE8.7 kmh SSE 7.6 mph12.2 kmh 29.75 in1007.5 mb 0.00 in0.0 mm 0.00 in0.0 mm 0.00 in0.0 mm
10:45 AM 93.7°F34.3°C 71.8°F22.1°C 49% 5.6 mph SE9.0 kmh SE 8.3 mph13.4 kmh 29.75 in1007.5 mb 0.00 in0.0 mm 0.00 in0.0 mm 0.00 in0.0 mm
10:40 AM 93.0°F33.9°C 70.5°F21.4°C 48% 5.4 mph SE8.7 kmh SE 8.3 mph13.4 kmh 29.75 in1007.5 mb 0.00 in0.0 mm 0.00 in0.0 mm 0.00 in0.0 mm
10:35 AM 92.5°F33.6°C 70.0°F21.1°C 48% 5.3 mph ESE8.5 kmh ESE 7.6 mph12.2 kmh 29.76 in1007.8 mb 0.00 in0.0 mm 0.00 in0.0 mm 0.00 in0.0 mm
10:30 AM 91.8°F33.2°C 70.0°F21.1°C 49% 5.1 mph ESE8.2 kmh ESE 7.6 mph12.2 kmh 29.77 in1008.1 mb 0.00 in0.0 mm 0.00 in0.0 mm 0.00 in0.0 mm
10:25 AM 91.0°F32.8°C 69.9°F21.1°C 50% 4.7 mph ESE7.6 kmh ESE 6.0 mph9.7 kmh 29.77 in1008.1 mb 0.00 in0.0 mm 0.00 in0.0 mm 0.00 in0.0 mm
10:20 AM 91.0°F32.8°C 69.3°F20.7°C 49% 5.2 mph E8.4 kmh E 7.6 mph12.2 kmh 29.77 in1008.1 mb 0.00 in0.0 mm 0.00 in0.0 mm 0.00 in0.0 mm
10:15 AM 90.5°F32.5°C 68.8°F20.4°C 49% 5.2 mph E8.4 kmh E 7.6 mph12.2 kmh 29.78 in1008.5 mb 0.00 in0.0 mm 0.00 in0.0 mm 0.00 in0.0 mm
10:10 AM 89.8°F32.1°C 68.7°F20.4°C 50% 5.0 mph SE8.0 kmh SE 8.3 mph13.4 kmh 29.78 in1008.5 mb 0.00 in0.0 mm 0.00 in0.0 mm 0.00 in0.0 mm
10:05 AM 89.1°F31.7°C 68.6°F20.3°C 51% 4.6 mph SE7.4 kmh SE 8.3 mph13.4 kmh 29.78 in1008.5 mb 0.00 in0.0 mm 0.00 in0.0 mm 0.00 in0.0 mm
10:00 AM 88.2°F31.2°C 68.4°F20.2°C 52% 3.9 mph SE6.3 kmh SE 6.0 mph9.7 kmh 29.78 in1008.5 mb 0.00 in0.0 mm 0.00 in0.0 mm 0.00 in0.0 mm
09:55 AM 87.3°F30.7°C 68.1°F20.1°C 53% 4.2 mph ESE6.8 kmh ESE 6.9 mph11.1 kmh 29.78 in1008.5 mb 0.00 in0.0 mm 0.00 in0.0 mm 0.00 in0.0 mm
09:50 AM 86.7°F30.4°C 66.5°F19.2°C 51% 4.5 mph E7.2 kmh E 6.9 mph11.1 kmh 29.78 in1008.5 mb 0.00 in0.0 mm 0.00 in0.0 mm 0.00 in0.0 mm
09:45 AM 87.1°F30.6°C 66.8°F19.3°C 51% 4.6 mph ESE7.4 kmh ESE 6.9 mph11.1 kmh 29.78 in1008.5 mb 0.00 in0.0 mm 0.00 in0.0 mm 0.00 in0.0 mm
09:40 AM 86.7°F30.4°C 67.0°F19.4°C 52% 5.0 mph SE8.0 kmh SE 6.9 mph11.1 kmh 29.79 in1008.8 mb 0.00 in0.0 mm 0.00 in0.0 mm 0.00 in0.0 mm
09:35 AM 86.0°F30.0°C 66.9°F19.4°C 53% 4.4 mph SE7.1 kmh SE 6.9 mph11.1 kmh 29.79 in1008.8 mb 0.00 in0.0 mm 0.00 in0.0 mm 0.00 in0.0 mm
09:30 AM 85.5°F29.7°C 67.0°F19.4°C 54% 4.1 mph SE6.6 kmh SE 6.9 mph11.1 kmh 29.79 in1008.8 mb 0.00 in0.0 mm 0.00 in0.0 mm 0.00 in0.0 mm
09:25 AM 84.6°F29.2°C 66.7°F19.3°C 55% 5.0 mph SE8.0 kmh SE 9.8 mph15.8 kmh 29.79 in1008.8 mb 0.00 in0.0 mm 0.00 in0.0 mm 0.00 in0.0 mm
09:20 AM 83.7°F28.7°C 65.8°F18.8°C 55% 5.1 mph ESE8.2 kmh ESE 9.8 mph15.8 kmh 29.79 in1008.8 mb 0.00 in0.0 mm 0.00 in0.0 mm 0.00 in0.0 mm
09:15 AM 82.9°F28.3°C 66.2°F19.0°C 57% 4.8 mph ESE7.7 kmh ESE 6.0 mph9.7 kmh 29.79 in1008.8 mb 0.00 in0.0 mm 0.00 in0.0 mm 0.00 in0.0 mm
09:10 AM 82.0°F27.8°C 65.9°F18.8°C 58% 5.2 mph ESE8.4 kmh ESE 7.6 mph12.2 kmh 29.80 in1009.1 mb 0.00 in0.0 mm 0.00 in0.0 mm 0.00 in0.0 mm
09:05 AM 81.1°F27.3°C 65.5°F18.6°C 59% 4.9 mph ESE7.9 kmh ESE 7.6 mph12.2 kmh 29.79 in1008.8 mb 0.00 in0.0 mm 0.00 in0.0 mm 0.00 in0.0 mm
09:00 AM 79.3°F26.3°C 64.8°F18.2°C 61% 5.3 mph ESE8.5 kmh ESE 7.6 mph12.2 kmh 29.79 in1008.8 mb 0.00 in0.0 mm 0.00 in0.0 mm 0.00 in0.0 mm
08:55 AM 77.9°F25.5°C 63.4°F17.4°C 61% 5.9 mph ESE9.5 kmh ESE 7.6 mph12.2 kmh 29.79 in1008.8 mb 0.00 in0.0 mm 0.00 in0.0 mm 0.00 in0.0 mm
08:50 AM 77.4°F25.2°C 62.4°F16.9°C 60% 5.8 mph ESE9.3 kmh ESE 8.3 mph13.4 kmh 29.80 in1009.1 mb 0.00 in0.0 mm 0.00 in0.0 mm 0.00 in0.0 mm
08:45 AM 77.7°F25.4°C 62.3°F16.8°C 59% 6.1 mph ESE9.8 kmh ESE 8.3 mph13.4 kmh 29.79 in1008.8 mb 0.00 in0.0 mm 0.00 in0.0 mm 0.00 in0.0 mm
08:40 AM 78.1°F25.6°C 63.1°F17.3°C 60% 5.5 mph ESE8.9 kmh ESE 6.9 mph11.1 kmh 29.80 in1009.1 mb 0.00 in0.0 mm 0.00 in0.0 mm 0.00 in0.0 mm
08:35 AM 77.9°F25.5°C 63.4°F17.4°C 61% 4.8 mph ESE7.7 kmh ESE 6.9 mph11.1 kmh 29.80 in1009.1 mb 0.00 in0.0 mm 0.00 in0.0 mm 0.00 in0.0 mm
08:30 AM 77.5°F25.3°C 63.1°F17.3°C 61% 4.6 mph E7.4 kmh E 6.9 mph11.1 kmh 29.80 in1009.1 mb 0.00 in0.0 mm 0.00 in0.0 mm 0.00 in0.0 mm
08:25 AM 76.8°F24.9°C 62.4°F16.9°C 61% 4.0 mph E6.4 kmh E 6.0 mph9.7 kmh 29.80 in1009.1 mb 0.00 in0.0 mm 0.00 in0.0 mm 0.00 in0.0 mm
08:20 AM 76.3°F24.6°C 62.3°F16.8°C 62% 3.5 mph ESE5.6 kmh ESE 4.5 mph7.2 kmh 29.80 in1009.1 mb 0.00 in0.0 mm 0.00 in0.0 mm 0.00 in0.0 mm
08:15 AM 75.9°F24.4°C 62.5°F16.9°C 63% 3.8 mph SE6.1 kmh SE 4.5 mph7.2 kmh 29.80 in1009.1 mb 0.00 in0.0 mm 0.00 in0.0 mm 0.00 in0.0 mm
08:10 AM 75.4°F24.1°C 61.9°F16.6°C 63% 4.2 mph ESE6.8 kmh ESE 5.4 mph8.7 kmh 29.80 in1009.1 mb 0.00 in0.0 mm 0.00 in0.0 mm 0.00 in0.0 mm
08:05 AM 75.2°F24.0°C 61.8°F16.6°C 63% 5.0 mph ESE8.0 kmh ESE 6.9 mph11.1 kmh 29.81 in1009.5 mb 0.00 in0.0 mm 0.00 in0.0 mm 0.00 in0.0 mm
08:00 AM 75.0°F23.9°C 61.6°F16.4°C 63% 5.0 mph ESE8.0 kmh ESE 6.9 mph11.1 kmh 29.80 in1009.1 mb 0.00 in0.0 mm 0.00 in0.0 mm 0.00 in0.0 mm
07:55 AM 74.5°F23.6°C 61.5°F16.4°C 64% 4.6 mph ESE7.4 kmh ESE 6.0 mph9.7 kmh 29.80 in1009.1 mb 0.00 in0.0 mm 0.00 in0.0 mm 0.00 in0.0 mm
07:50 AM 74.3°F23.5°C 61.8°F16.6°C 65% 4.1 mph SE6.6 kmh SE 6.0 mph9.7 kmh 29.81 in1009.5 mb 0.00 in0.0 mm 0.00 in0.0 mm 0.00 in0.0 mm
07:45 AM 74.3°F23.5°C 62.2°F16.8°C 66% 3.3 mph SE5.3 kmh SE 6.0 mph9.7 kmh 29.81 in1009.5 mb 0.00 in0.0 mm 0.00 in0.0 mm 0.00 in0.0 mm
07:40 AM 73.9°F23.3°C 61.9°F16.6°C 66% 3.1 mph SSE5.0 kmh SSE 6.0 mph9.7 kmh 29.81 in1009.5 mb 0.00 in0.0 mm 0.00 in0.0 mm 0.00 in0.0 mm
07:35 AM 73.6°F23.1°C 62.0°F16.7°C 67% 2.9 mph SE4.7 kmh SE 5.4 mph8.7 kmh 29.81 in1009.5 mb 0.00 in0.0 mm 0.00 in0.0 mm 0.00 in0.0 mm
07:30 AM 72.9°F22.7°C 61.7°F16.5°C 68% 2.3 mph SE3.7 kmh SE 5.4 mph8.7 kmh 29.81 in1009.5 mb 0.00 in0.0 mm 0.00 in0.0 mm 0.00 in0.0 mm
07:25 AM 72.3°F22.4°C 61.6°F16.4°C 69% 1.6 mph S2.6 kmh S 2.2 mph3.5 kmh 29.81 in1009.5 mb 0.00 in0.0 mm 0.00 in0.0 mm 0.00 in0.0 mm
07:20 AM 71.6°F22.0°C 61.3°F16.3°C 70% 1.9 mph S3.1 kmh S 3.1 mph5.0 kmh 29.81 in1009.5 mb 0.00 in0.0 mm 0.00 in0.0 mm 0.00 in0.0 mm
07:15 AM 71.1°F21.7°C 60.8°F16.0°C 70% 2.1 mph S3.4 kmh S 3.1 mph5.0 kmh 29.81 in1009.5 mb 0.00 in0.0 mm 0.00 in0.0 mm 0.00 in0.0 mm
07:10 AM 70.7°F21.5°C 60.9°F16.1°C 71% 2.0 mph S3.2 kmh S 3.1 mph5.0 kmh 29.81 in1009.5 mb 0.00 in0.0 mm 0.00 in0.0 mm 0.00 in0.0 mm
07:05 AM 70.2°F21.2°C 60.7°F15.9°C 72% 2.2 mph SSE3.5 kmh SSE 3.1 mph5.0 kmh 29.81 in1009.5 mb 0.00 in0.0 mm 0.00 in0.0 mm 0.00 in0.0 mm
07:00 AM 70.0°F21.1°C 60.2°F15.7°C 71% 2.3 mph S3.7 kmh S 3.1 mph5.0 kmh 29.82 in1009.8 mb 0.00 in0.0 mm 0.00 in0.0 mm 0.00 in0.0 mm
06:55 AM 69.8°F21.0°C 60.4°F15.8°C 72% 1.9 mph S3.1 kmh S 3.1 mph5.0 kmh 29.82 in1009.8 mb 0.00 in0.0 mm 0.00 in0.0 mm 0.00 in0.0 mm
06:50 AM 69.4°F20.8°C 60.0°F15.6°C 72% 1.6 mph SSE2.6 kmh SSE 3.1 mph5.0 kmh 29.82 in1009.8 mb 0.00 in0.0 mm 0.00 in0.0 mm 0.00 in0.0 mm
06:45 AM 69.4°F20.8°C 60.0°F15.6°C 72% 1.8 mph SSE2.9 kmh SSE 3.1 mph5.0 kmh 29.82 in1009.8 mb 0.00 in0.0 mm 0.00 in0.0 mm 0.00 in0.0 mm
06:40 AM 69.3°F20.7°C 59.9°F15.5°C 72% 2.2 mph SSE3.5 kmh SSE 3.8 mph6.1 kmh 29.81 in1009.5 mb 0.00 in0.0 mm 0.00 in0.0 mm 0.00 in0.0 mm
06:35 AM 68.9°F20.5°C 59.5°F15.3°C 72% 2.1 mph S3.4 kmh S 3.8 mph6.1 kmh 29.81 in1009.5 mb 0.00 in0.0 mm 0.00 in0.0 mm 0.00 in0.0 mm
06:30 AM 68.7°F20.4°C 59.4°F15.2°C 72% 2.2 mph SSE3.5 kmh SSE 3.1 mph5.0 kmh 29.81 in1009.5 mb 0.00 in0.0 mm 0.00 in0.0 mm 0.00 in0.0 mm
06:25 AM 68.5°F20.3°C 59.6°F15.3°C 73% 2.1 mph SSE3.4 kmh SSE 3.1 mph5.0 kmh 29.81 in1009.5 mb 0.00 in0.0 mm 0.00 in0.0 mm 0.00 in0.0 mm
06:20 AM 68.2°F20.1°C 59.2°F15.1°C 73% 1.2 mph SSW1.9 kmh SSW 2.2 mph3.5 kmh 29.81 in1009.5 mb 0.00 in0.0 mm 0.00 in0.0 mm 0.00 in0.0 mm
06:15 AM 67.8°F19.9°C 58.9°F14.9°C 73% 0.7 mph SW1.1 kmh SW 2.2 mph3.5 kmh 29.81 in1009.5 mb 0.00 in0.0 mm 0.00 in0.0 mm 0.00 in0.0 mm
06:10 AM 67.6°F19.8°C 58.7°F14.8°C 73% 0.9 mph SSW1.4 kmh SSW 2.2 mph3.5 kmh 29.81 in1009.5 mb 0.00 in0.0 mm 0.00 in0.0 mm 0.00 in0.0 mm
06:05 AM 67.6°F19.8°C 58.7°F14.8°C 73% 1.0 mph S1.6 kmh S 2.2 mph3.5 kmh 29.81 in1009.5 mb 0.00 in0.0 mm 0.00 in0.0 mm 0.00 in0.0 mm
06:00 AM 67.3°F19.6°C 58.4°F14.7°C 73% 1.8 mph NNW2.9 kmh NNW 3.8 mph6.1 kmh 29.81 in1009.5 mb 0.00 in0.0 mm 0.00 in0.0 mm 0.00 in0.0 mm
05:55 AM 67.1°F19.5°C 58.2°F14.6°C 73% 2.9 mph E4.7 kmh E 3.8 mph6.1 kmh 29.81 in1009.5 mb 0.00 in0.0 mm 0.00 in0.0 mm 0.00 in0.0 mm
05:50 AM 67.5°F19.7°C 58.1°F14.5°C 72% 2.3 mph SSE3.7 kmh SSE 3.8 mph6.1 kmh 29.81 in1009.5 mb 0.00 in0.0 mm 0.00 in0.0 mm 0.00 in0.0 mm
05:45 AM 67.5°F19.7°C 58.1°F14.5°C 72% 1.7 mph SSW2.7 kmh SSW 3.1 mph5.0 kmh 29.81 in1009.5 mb 0.00 in0.0 mm 0.00 in0.0 mm 0.00 in0.0 mm
05:40 AM 67.5°F19.7°C 58.5°F14.7°C 73% 1.4 mph S2.3 kmh S 3.1 mph5.0 kmh 29.81 in1009.5 mb 0.00 in0.0 mm 0.00 in0.0 mm 0.00 in0.0 mm
05:35 AM 67.3°F19.6°C 58.4°F14.7°C 73% 1.4 mph S2.3 kmh S 3.8 mph6.1 kmh 29.81 in1009.5 mb 0.00 in0.0 mm 0.00 in0.0 mm 0.00 in0.0 mm
05:30 AM 67.3°F19.6°C 58.4°F14.7°C 73% 2.2 mph SSE3.5 kmh SSE 3.8 mph6.1 kmh 29.81 in1009.5 mb 0.00 in0.0 mm 0.00 in0.0 mm 0.00 in0.0 mm
05:25 AM 67.3°F19.6°C 58.4°F14.7°C 73% 2.2 mph SSE3.5 kmh SSE 3.8 mph6.1 kmh 29.81 in1009.5 mb 0.00 in0.0 mm 0.00 in0.0 mm 0.00 in0.0 mm
05:20 AM 67.3°F19.6°C 58.0°F14.4°C 72% 1.0 mph S1.6 kmh S 2.2 mph3.5 kmh 29.80 in1009.1 mb 0.00 in0.0 mm 0.00 in0.0 mm 0.00 in0.0 mm
05:15 AM 67.5°F19.7°C 58.1°F14.5°C 72% 0.4 mph SW0.6 kmh SW 1.6 mph2.6 kmh 29.80 in1009.1 mb 0.00 in0.0 mm 0.00 in0.0 mm 0.00 in0.0 mm
05:10 AM 67.3°F19.6°C 58.0°F14.4°C 72% 0.3 mph SW0.5 kmh SW 1.6 mph2.6 kmh 29.80 in1009.1 mb 0.00 in0.0 mm 0.00 in0.0 mm 0.00 in0.0 mm
05:05 AM 67.3°F19.6°C 58.0°F14.4°C 72% 0.7 mph SE1.1 kmh SE 2.2 mph3.5 kmh 29.80 in1009.1 mb 0.00 in0.0 mm 0.00 in0.0 mm 0.00 in0.0 mm
05:00 AM 67.3°F19.6°C 58.0°F14.4°C 72% 1.2 mph SE1.9 kmh SE 2.2 mph3.5 kmh 29.80 in1009.1 mb 0.00 in0.0 mm 0.00 in0.0 mm 0.00 in0.0 mm
04:55 AM 67.3°F19.6°C 58.0°F14.4°C 72% 1.0 mph SW1.6 kmh SW 1.6 mph2.6 kmh 29.80 in1009.1 mb 0.00 in0.0 mm 0.00 in0.0 mm 0.00 in0.0 mm
04:50 AM 67.5°F19.7°C 57.8°F14.3°C 71% 1.1 mph SW1.8 kmh SW 1.6 mph2.6 kmh 29.80 in1009.1 mb 0.00 in0.0 mm 0.00 in0.0 mm 0.00 in0.0 mm
04:45 AM 67.5°F19.7°C 58.1°F14.5°C 72% 1.4 mph SSW2.3 kmh SSW 2.2 mph3.5 kmh 29.80 in1009.1 mb 0.00 in0.0 mm 0.00 in0.0 mm 0.00 in0.0 mm
04:40 AM 67.5°F19.7°C 58.1°F14.5°C 72% 1.8 mph S2.9 kmh S 2.2 mph3.5 kmh 29.80 in1009.1 mb 0.00 in0.0 mm 0.00 in0.0 mm 0.00 in0.0 mm
04:35 AM 67.6°F19.8°C 58.3°F14.6°C 72% 1.7 mph S2.7 kmh S 2.2 mph3.5 kmh 29.80 in1009.1 mb 0.00 in0.0 mm 0.00 in0.0 mm 0.00 in0.0 mm
04:30 AM 67.6°F19.8°C 58.3°F14.6°C 72% 1.8 mph S2.9 kmh S 2.2 mph3.5 kmh 29.80 in1009.1 mb 0.00 in0.0 mm 0.00 in0.0 mm 0.00 in0.0 mm
04:25 AM 67.8°F19.9°C 58.1°F14.5°C 71% 1.9 mph S3.1 kmh S 2.2 mph3.5 kmh 29.80 in1009.1 mb 0.00 in0.0 mm 0.00 in0.0 mm 0.00 in0.0 mm
04:20 AM 68.0°F20.0°C 58.3°F14.6°C 71% 1.6 mph S2.6 kmh S 2.2 mph3.5 kmh 29.79 in1008.8 mb 0.00 in0.0 mm 0.00 in0.0 mm 0.00 in0.0 mm
04:15 AM 68.0°F20.0°C 58.3°F14.6°C 71% 1.6 mph S2.6 kmh S 2.2 mph3.5 kmh 29.79 in1008.8 mb 0.00 in0.0 mm 0.00 in0.0 mm 0.00 in0.0 mm
04:10 AM 68.0°F20.0°C 58.3°F14.6°C 71% 2.2 mph SSE3.5 kmh SSE 3.1 mph5.0 kmh 29.79 in1008.8 mb 0.00 in0.0 mm 0.00 in0.0 mm 0.00 in0.0 mm
04:05 AM 68.0°F20.0°C 58.3°F14.6°C 71% 2.3 mph SSE3.7 kmh SSE 3.1 mph5.0 kmh 29.79 in1008.8 mb 0.00 in0.0 mm 0.00 in0.0 mm 0.00 in0.0 mm
04:00 AM 68.0°F20.0°C 58.3°F14.6°C 71% 1.8 mph S2.9 kmh S 3.1 mph5.0 kmh 29.79 in1008.8 mb 0.00 in0.0 mm 0.00 in0.0 mm 0.00 in0.0 mm
03:55 AM 68.0°F20.0°C 58.3°F14.6°C 71% 1.3 mph SSW2.1 kmh SSW 2.2 mph3.5 kmh 29.79 in1008.8 mb 0.00 in0.0 mm 0.00 in0.0 mm 0.00 in0.0 mm
03:50 AM 68.2°F20.1°C 58.4°F14.7°C 71% 1.0 mph SW1.6 kmh SW 1.6 mph2.6 kmh 29.79 in1008.8 mb 0.00 in0.0 mm 0.00 in0.0 mm 0.00 in0.0 mm
03:45 AM 68.0°F20.0°C 58.7°F14.8°C 72% 0.9 mph NW1.4 kmh NW 2.2 mph3.5 kmh 29.79 in1008.8 mb 0.00 in0.0 mm 0.00 in0.0 mm 0.00 in0.0 mm
03:40 AM 68.0°F20.0°C 58.7°F14.8°C 72% 0.7 mph WNW1.1 kmh WNW 2.2 mph3.5 kmh 29.79 in1008.8 mb 0.00 in0.0 mm 0.00 in0.0 mm 0.00 in0.0 mm
03:35 AM 68.2°F20.1°C 58.8°F14.9°C 72% 0.6 mph SSW1.0 kmh SSW 1.6 mph2.6 kmh 29.79 in1008.8 mb 0.00 in0.0 mm 0.00 in0.0 mm 0.00 in0.0 mm
03:30 AM 68.2°F20.1°C 58.4°F14.7°C 71% 0.8 mph SW1.3 kmh SW 1.6 mph2.6 kmh 29.79 in1008.8 mb 0.00 in0.0 mm 0.00 in0.0 mm 0.00 in0.0 mm
03:25 AM 68.4°F20.2°C 58.6°F14.8°C 71% 1.1 mph SW1.8 kmh SW 2.2 mph3.5 kmh 29.79 in1008.8 mb 0.00 in0.0 mm 0.00 in0.0 mm 0.00 in0.0 mm
03:20 AM 68.4°F20.2°C 58.6°F14.8°C 71% 1.0 mph SW1.6 kmh SW 2.2 mph3.5 kmh 29.78 in1008.5 mb 0.00 in0.0 mm 0.00 in0.0 mm 0.00 in0.0 mm
03:15 AM 68.4°F20.2°C 58.2°F14.6°C 70% 1.2 mph SSW1.9 kmh SSW 2.2 mph3.5 kmh 29.79 in1008.8 mb 0.00 in0.0 mm 0.00 in0.0 mm 0.00 in0.0 mm
03:10 AM 68.4°F20.2°C 58.2°F14.6°C 70% 1.8 mph S2.9 kmh S 2.2 mph3.5 kmh 29.79 in1008.8 mb 0.00 in0.0 mm 0.00 in0.0 mm 0.00 in0.0 mm
03:05 AM 68.4°F20.2°C 58.2°F14.6°C 70% 1.6 mph S2.6 kmh S 2.2 mph3.5 kmh 29.79 in1008.8 mb 0.00 in0.0 mm 0.00 in0.0 mm 0.00 in0.0 mm
03:00 AM 68.2°F20.1°C 58.0°F14.4°C 70% 1.4 mph S2.3 kmh S 2.2 mph3.5 kmh 29.78 in1008.5 mb 0.00 in0.0 mm 0.00 in0.0 mm 0.00 in0.0 mm
02:55 AM 68.4°F20.2°C 58.2°F14.6°C 70% 1.6 mph S2.6 kmh S 2.2 mph3.5 kmh 29.79 in1008.8 mb 0.00 in0.0 mm 0.00 in0.0 mm 0.00 in0.0 mm
02:50 AM 68.4°F20.2°C 58.2°F14.6°C 70% 1.9 mph S3.1 kmh S 2.2 mph3.5 kmh 29.78 in1008.5 mb 0.00 in0.0 mm 0.00 in0.0 mm 0.00 in0.0 mm
02:45 AM 68.4°F20.2°C 58.2°F14.6°C 70% 2.2 mph S3.5 kmh S 3.1 mph5.0 kmh 29.78 in1008.5 mb 0.00 in0.0 mm 0.00 in0.0 mm 0.00 in0.0 mm
02:40 AM 68.4°F20.2°C 58.2°F14.6°C 70% 2.9 mph S4.7 kmh S 3.8 mph6.1 kmh 29.79 in1008.8 mb 0.00 in0.0 mm 0.00 in0.0 mm 0.00 in0.0 mm
02:35 AM 68.5°F20.3°C 58.4°F14.7°C 70% 3.0 mph S4.8 kmh S 3.8 mph6.1 kmh 29.79 in1008.8 mb 0.00 in0.0 mm 0.00 in0.0 mm 0.00 in0.0 mm
02:30 AM 68.4°F20.2°C 58.6°F14.8°C 71% 2.6 mph S4.2 kmh S 3.1 mph5.0 kmh 29.79 in1008.8 mb 0.00 in0.0 mm 0.00 in0.0 mm 0.00 in0.0 mm
02:25 AM 68.5°F20.3°C 58.4°F14.7°C 70% 2.6 mph S4.2 kmh S 3.1 mph5.0 kmh 29.79 in1008.8 mb 0.00 in0.0 mm 0.00 in0.0 mm 0.00 in0.0 mm
02:20 AM 68.7°F20.4°C 58.6°F14.8°C 70% 2.7 mph S4.3 kmh S 3.8 mph6.1 kmh 29.79 in1008.8 mb 0.00 in0.0 mm 0.00 in0.0 mm 0.00 in0.0 mm
02:15 AM 68.7°F20.4°C 58.6°F14.8°C 70% 3.1 mph S5.0 kmh S 4.5 mph7.2 kmh 29.79 in1008.8 mb 0.00 in0.0 mm 0.00 in0.0 mm 0.00 in0.0 mm
02:10 AM 68.9°F20.5°C 58.7°F14.8°C 70% 3.0 mph S4.8 kmh S 4.5 mph7.2 kmh 29.79 in1008.8 mb 0.00 in0.0 mm 0.00 in0.0 mm 0.00 in0.0 mm
02:05 AM 68.7°F20.4°C 58.6°F14.8°C 70% 3.2 mph S5.1 kmh S 3.8 mph6.1 kmh 29.79 in1008.8 mb 0.00 in0.0 mm 0.00 in0.0 mm 0.00 in0.0 mm
02:00 AM 68.7°F20.4°C 58.6°F14.8°C 70% 3.3 mph S5.3 kmh S 3.8 mph6.1 kmh 29.80 in1009.1 mb 0.00 in0.0 mm 0.00 in0.0 mm 0.00 in0.0 mm
01:55 AM 68.7°F20.4°C 58.6°F14.8°C 70% 2.8 mph S4.5 kmh S 3.8 mph6.1 kmh 29.80 in1009.1 mb 0.00 in0.0 mm 0.00 in0.0 mm 0.00 in0.0 mm
01:50 AM 68.9°F20.5°C 58.7°F14.8°C 70% 2.7 mph S4.3 kmh S 3.8 mph6.1 kmh 29.80 in1009.1 mb 0.00 in0.0 mm 0.00 in0.0 mm 0.00 in0.0 mm
01:45 AM 68.9°F20.5°C 58.3°F14.6°C 69% 2.3 mph S3.7 kmh S 3.1 mph5.0 kmh 29.80 in1009.1 mb 0.00 in0.0 mm 0.00 in0.0 mm 0.00 in0.0 mm
01:40 AM 69.3°F20.7°C 58.7°F14.8°C 69% 2.3 mph S3.7 kmh S 3.1 mph5.0 kmh 29.80 in1009.1 mb 0.00 in0.0 mm 0.00 in0.0 mm 0.00 in0.0 mm
01:35 AM 69.4°F20.8°C 58.4°F14.7°C 68% 3.2 mph S5.1 kmh S 4.5 mph7.2 kmh 29.80 in1009.1 mb 0.00 in0.0 mm 0.00 in0.0 mm 0.00 in0.0 mm
01:30 AM 69.6°F20.9°C 58.6°F14.8°C 68% 3.5 mph S5.6 kmh S 4.5 mph7.2 kmh 29.80 in1009.1 mb 0.00 in0.0 mm 0.00 in0.0 mm 0.00 in0.0 mm
01:25 AM 70.0°F21.1°C 58.5°F14.7°C 67% 3.5 mph SE5.6 kmh SE 4.5 mph7.2 kmh 29.81 in1009.5 mb 0.00 in0.0 mm 0.00 in0.0 mm 0.00 in0.0 mm
01:20 AM 70.2°F21.2°C 58.7°F14.8°C 67% 3.6 mph SE5.8 kmh SE 4.5 mph7.2 kmh 29.81 in1009.5 mb 0.00 in0.0 mm 0.00 in0.0 mm 0.00 in0.0 mm
01:15 AM 70.3°F21.3°C 58.9°F14.9°C 67% 4.2 mph SE6.8 kmh SE 5.4 mph8.7 kmh 29.81 in1009.5 mb 0.00 in0.0 mm 0.00 in0.0 mm 0.00 in0.0 mm
01:10 AM 70.3°F21.3°C 58.5°F14.7°C 66% 4.6 mph SE7.4 kmh SE 6.0 mph9.7 kmh 29.81 in1009.5 mb 0.00 in0.0 mm 0.00 in0.0 mm 0.00 in0.0 mm
01:05 AM 70.3°F21.3°C 58.9°F14.9°C 67% 4.5 mph SE7.2 kmh SE 6.0 mph9.7 kmh 29.81 in1009.5 mb 0.00 in0.0 mm 0.00 in0.0 mm 0.00 in0.0 mm
01:00 AM 70.3°F21.3°C 58.9°F14.9°C 67% 5.0 mph SE8.0 kmh SE 6.9 mph11.1 kmh 29.81 in1009.5 mb 0.00 in0.0 mm 0.00 in0.0 mm 0.00 in0.0 mm
12:55 AM 70.3°F21.3°C 58.9°F14.9°C 67% 4.0 mph SE6.4 kmh SE 6.9 mph11.1 kmh 29.81 in1009.5 mb 0.00 in0.0 mm 0.00 in0.0 mm 0.00 in0.0 mm
12:50 AM 70.3°F21.3°C 58.9°F14.9°C 67% 2.0 mph S3.2 kmh S 4.5 mph7.2 kmh 29.81 in1009.5 mb 0.00 in0.0 mm 0.00 in0.0 mm 0.00 in0.0 mm
12:45 AM 70.3°F21.3°C 58.9°F14.9°C 67% 1.4 mph WSW2.3 kmh WSW 3.1 mph5.0 kmh 29.81 in1009.5 mb 0.00 in0.0 mm 0.00 in0.0 mm 0.00 in0.0 mm
12:40 AM 70.3°F21.3°C 58.9°F14.9°C 67% 1.5 mph WSW2.4 kmh WSW 4.5 mph7.2 kmh 29.81 in1009.5 mb 0.00 in0.0 mm 0.00 in0.0 mm 0.00 in0.0 mm
12:35 AM 70.3°F21.3°C 58.9°F14.9°C 67% 2.3 mph SW3.7 kmh SW 4.5 mph7.2 kmh 29.81 in1009.5 mb 0.00 in0.0 mm 0.00 in0.0 mm 0.00 in0.0 mm
12:30 AM 70.7°F21.5°C 59.2°F15.1°C 67% 3.5 mph SSE5.6 kmh SSE 5.4 mph8.7 kmh 29.81 in1009.5 mb 0.00 in0.0 mm 0.00 in0.0 mm 0.00 in0.0 mm
12:25 AM 70.9°F21.6°C 59.4°F15.2°C 67% 3.6 mph SE5.8 kmh SE 5.4 mph8.7 kmh 29.81 in1009.5 mb 0.00 in0.0 mm 0.00 in0.0 mm 0.00 in0.0 mm
12:20 AM 71.1°F21.7°C 59.6°F15.3°C 67% 3.0 mph SE4.8 kmh SE 4.5 mph7.2 kmh 29.81 in1009.5 mb 0.00 in0.0 mm 0.00 in0.0 mm 0.00 in0.0 mm
12:15 AM 71.2°F21.8°C 59.3°F15.2°C 66% 3.9 mph SE6.3 kmh SE 6.0 mph9.7 kmh 29.81 in1009.5 mb 0.00 in0.0 mm 0.00 in0.0 mm 0.00 in0.0 mm
12:10 AM 71.4°F21.9°C 59.5°F15.3°C 66% 4.6 mph SE7.4 kmh SE 6.0 mph9.7 kmh 29.81 in1009.5 mb 0.00 in0.0 mm 0.00 in0.0 mm 0.00 in0.0 mm
12:05 AM 71.4°F21.9°C 59.1°F15.1°C 65% 4.6 mph SE7.4 kmh SE 6.0 mph9.7 kmh 29.82 in1009.8 mb 0.00 in0.0 mm 0.00 in0.0 mm 0.00 in0.0 mm
12:00 AM 71.6°F22.0°C 59.2°F15.1°C 65% 4.4 mph SE7.1 kmh SE 5.4 mph8.7 kmh 29.82 in1009.8 mb 0.00 in0.0 mm 0.00 in0.0 mm 0.00 in0.0 mm